sensor_id;sensor_type;location;lat;lon;timestamp;pressure;altitude;pressure_sealevel;temperature;humidity
7930;BME280;4010;42.698;23.124;2022-11-21T00:02:10;54404.63;;;-140.64;100.00
7930;BME280;4010;42.698;23.124;2022-11-21T00:04:37;52078.13;;;-140.64;100.00
7930;BME280;4010;42.698;23.124;2022-11-21T00:07:03;52595.00;;;-140.64;100.00
7930;BME280;4010;42.698;23.124;2022-11-21T00:09:30;53111.94;;;-140.64;100.00
7930;BME280;4010;42.698;23.124;2022-11-21T00:11:58;52336.56;;;-140.64;100.00
7930;BME280;4010;42.698;23.124;2022-11-21T00:14:24;51819.75;;;-140.64;100.00
7930;BME280;4010;42.698;23.124;2022-11-21T00:16:52;52336.56;;;-140.64;100.00
7930;BME280;4010;42.698;23.124;2022-11-21T00:19:19;50786.34;;;-140.64;100.00
7930;BME280;4010;42.698;23.124;2022-11-21T00:21:46;48462.31;;;-140.64;100.00
7930;BME280;4010;42.698;23.124;2022-11-21T00:24:12;47688.00;;;-140.64;100.00
7930;BME280;4010;42.698;23.124;2022-11-21T00:26:39;47946.09;;;-140.64;100.00
7930;BME280;4010;42.698;23.124;2022-11-21T00:29:06;46397.88;;;-140.64;100.00
7930;BME280;4010;42.698;23.124;2022-11-21T00:31:32;45366.13;;;-140.64;100.00
7930;BME280;4010;42.698;23.124;2022-11-21T00:34:00;45624.03;;;-140.64;100.00
7930;BME280;4010;42.698;23.124;2022-11-21T00:36:27;45881.97;;;-140.64;100.00
7930;BME280;4010;42.698;23.124;2022-11-21T00:38:54;50011.50;;;-140.64;100.00
7930;BME280;4010;42.698;23.124;2022-11-21T00:41:20;52595.00;;;-140.64;100.00
7930;BME280;4010;42.698;23.124;2022-11-21T00:43:47;55697.81;;;-140.64;100.00
7930;BME280;4010;42.698;23.124;2022-11-21T00:46:14;56732.72;;;-140.64;100.00
7930;BME280;4010;42.698;23.124;2022-11-21T00:48:40;56215.25;;;-140.64;100.00
7930;BME280;4010;42.698;23.124;2022-11-21T00:51:08;56473.97;;;-140.64;100.00
7930;BME280;4010;42.698;23.124;2022-11-21T00:53:35;55956.53;;;-140.64;100.00
7930;BME280;4010;42.698;23.124;2022-11-21T00:56:02;54921.84;;;-140.64;100.00
7930;BME280;4010;42.698;23.124;2022-11-21T00:58:29;54146.06;;;-140.64;100.00
7930;BME280;4010;42.698;23.124;2022-11-21T01:01:04;55439.16;;;-140.64;100.00
7930;BME280;4010;42.698;23.124;2022-11-21T01:03:31;52078.13;;;-140.64;100.00
7930;BME280;4010;42.698;23.124;2022-11-21T01:06:00;48978.63;;;-140.64;100.00
7930;BME280;4010;42.698;23.124;2022-11-21T01:08:29;48204.19;;;-140.64;100.00
7930;BME280;4010;42.698;23.124;2022-11-21T01:10:55;46655.88;;;-140.64;100.00
7930;BME280;4010;42.698;23.124;2022-11-21T01:13:22;45881.97;;;-140.64;100.00
7930;BME280;4010;42.698;23.124;2022-11-21T01:15:49;45881.97;;;-140.64;100.00
7930;BME280;4010;42.698;23.124;2022-11-21T01:18:15;46913.88;;;-140.64;100.00
7930;BME280;4010;42.698;23.124;2022-11-21T01:20:42;47688.00;;;-140.64;100.00
7930;BME280;4010;42.698;23.124;2022-11-21T01:23:09;48462.31;;;-140.64;100.00
7930;BME280;4010;42.698;23.124;2022-11-21T01:25:37;48978.63;;;-140.64;100.00
7930;BME280;4010;42.698;23.124;2022-11-21T01:28:03;48204.19;;;-140.64;100.00
7930;BME280;4010;42.698;23.124;2022-11-21T01:30:30;50269.75;;;-140.64;100.00
7930;BME280;4010;42.698;23.124;2022-11-21T01:32:57;50528.03;;;-140.64;100.00
7930;BME280;4010;42.698;23.124;2022-11-21T01:35:23;50786.34;;;-140.64;100.00
7930;BME280;4010;42.698;23.124;2022-11-21T01:37:51;52336.56;;;-140.64;100.00
7930;BME280;4010;42.698;23.124;2022-11-21T01:40:17;54404.63;;;-140.64;100.00
7930;BME280;4010;42.698;23.124;2022-11-21T01:43:00;56473.97;;;-140.64;100.00
7930;BME280;4010;42.698;23.124;2022-11-21T01:45:53;58026.81;;;-140.64;100.00
7930;BME280;4010;42.698;23.124;2022-11-21T01:48:23;61393.72;;;-140.64;100.00
7930;BME280;4010;42.698;23.124;2022-11-21T01:50:52;65542.19;;;-140.64;100.00
7930;BME280;4010;42.698;23.124;2022-11-21T01:53:20;69955.47;;;-140.64;100.00
7930;BME280;4010;42.698;23.124;2022-11-21T01:55:47;74894.72;;;-140.64;100.00
7930;BME280;4010;42.698;23.124;2022-11-21T01:58:16;79059.63;;;-140.64;100.00
7930;BME280;4010;42.698;23.124;2022-11-21T02:00:45;79580.59;;;-140.64;100.00
7930;BME280;4010;42.698;23.124;2022-11-21T02:03:17;81404.59;;;-140.64;100.00
7930;BME280;4010;42.698;23.124;2022-11-21T02:05:46;84272.84;;;-140.64;100.00
7930;BME280;4010;42.698;23.124;2022-11-21T02:08:17;84011.97;;;-140.64;100.00
7930;BME280;4010;42.698;23.124;2022-11-21T02:10:51;87665.66;;;-140.64;100.00
7930;BME280;4010;42.698;23.124;2022-11-21T02:13:21;90016.50;;;-140.64;100.00
7930;BME280;4010;42.698;23.124;2022-11-21T02:15:48;93938.09;;;-140.64;100.00
7930;BME280;4010;42.698;23.124;2022-11-21T02:18:15;98649.91;;;-140.64;100.00
7930;BME280;4010;42.698;23.124;2022-11-21T02:20:45;96293.19;;;-140.64;100.00
7930;BME280;4010;42.698;23.124;2022-11-21T02:23:18;99435.81;;;-140.64;100.00
7930;BME280;4010;42.698;23.124;2022-11-21T02:25:50;101794.66;;;-140.64;100.00
7930;BME280;4010;42.698;23.124;2022-11-21T02:28:20;100484.00;;;-140.64;100.00
7930;BME280;4010;42.698;23.124;2022-11-21T02:30:49;102843.53;;;-140.64;100.00
7930;BME280;4010;42.698;23.124;2022-11-21T02:33:16;99435.81;;;-140.64;100.00
7930;BME280;4010;42.698;23.124;2022-11-21T02:35:43;98387.97;;;-140.64;100.00
7930;BME280;4010;42.698;23.124;2022-11-21T02:38:16;95508.00;;;-140.64;100.00
7930;BME280;4010;42.698;23.124;2022-11-21T02:40:49;99173.81;;;-140.64;100.00
7930;BME280;4010;42.698;23.124;2022-11-21T02:43:21;105204.66;;;-140.64;100.00
7930;BME280;4010;42.698;23.124;2022-11-21T02:45:48;110983.06;;;-140.64;100.00
7930;BME280;4010;42.698;23.124;2022-11-21T02:48:15;111771.75;;;-140.64;100.00
7930;BME280;4010;42.698;23.124;2022-11-21T02:50:44;113150.38;;;-140.64;100.00
7930;BME280;4010;42.698;23.124;2022-11-21T02:53:12;108880.72;;;-140.64;100.00
7930;BME280;4010;42.698;23.124;2022-11-21T02:55:40;109406.19;;;-140.64;100.00
7930;BME280;4010;42.698;23.124;2022-11-21T02:58:07;110194.53;;;-140.64;100.00
7930;BME280;4010;42.698;23.124;2022-11-21T03:00:36;108880.72;;;-140.64;100.00
7930;BME280;4010;42.698;23.124;2022-11-21T03:03:03;109143.44;;;-140.64;100.00
7930;BME280;4010;42.698;23.124;2022-11-21T03:05:31;107304.78;;;-140.64;100.00
7930;BME280;4010;42.698;23.124;2022-11-21T03:07:57;103630.41;;;-140.64;100.00
7930;BME280;4010;42.698;23.124;2022-11-21T03:10:24;99173.81;;;-140.64;100.00
7930;BME280;4010;42.698;23.124;2022-11-21T03:12:51;100746.06;;;-140.64;100.00
7930;BME280;4010;42.698;23.124;2022-11-21T03:15:25;109406.19;;;-140.64;100.00
7930;BME280;4010;42.698;23.124;2022-11-21T03:17:54;111508.84;;;-140.64;100.00
7930;BME280;4010;42.698;23.124;2022-11-21T03:20:21;115781.69;;;-140.64;100.00
7930;BME280;4010;42.698;23.124;2022-11-21T03:22:47;118349.16;;;-140.64;100.00
7930;BME280;4010;42.698;23.124;2022-11-21T03:25:14;118349.16;;;-140.64;100.00
7930;BME280;4010;42.698;23.124;2022-11-21T03:27:41;118349.16;;;-140.64;100.00
7930;BME280;4010;42.698;23.124;2022-11-21T03:30:09;118349.16;;;-140.64;100.00
7930;BME280;4010;42.698;23.124;2022-11-21T03:32:36;118349.16;;;-140.64;100.00
7930;BME280;4010;42.698;23.124;2022-11-21T03:35:05;118349.16;;;-140.64;100.00
7930;BME280;4010;42.698;23.124;2022-11-21T03:37:31;118349.16;;;-140.64;100.00
7930;BME280;4010;42.698;23.124;2022-11-21T03:39:58;118349.16;;;-140.64;100.00
7930;BME280;4010;42.698;23.124;2022-11-21T03:42:25;118349.16;;;-140.64;100.00
7930;BME280;4010;42.698;23.124;2022-11-21T03:44:51;118349.16;;;-140.64;100.00
7930;BME280;4010;42.698;23.124;2022-11-21T03:47:18;118349.16;;;-140.64;100.00
7930;BME280;4010;42.698;23.124;2022-11-21T03:49:45;118349.16;;;-140.64;100.00
7930;BME280;4010;42.698;23.124;2022-11-21T03:52:13;118349.16;;;-140.64;100.00
7930;BME280;4010;42.698;23.124;2022-11-21T03:54:39;118349.16;;;-140.64;100.00
7930;BME280;4010;42.698;23.124;2022-11-21T03:57:06;118349.16;;;-140.64;100.00
7930;BME280;4010;42.698;23.124;2022-11-21T03:59:33;118349.16;;;-140.64;100.00
7930;BME280;4010;42.698;23.124;2022-11-21T04:01:59;118349.16;;;-140.64;100.00
7930;BME280;4010;42.698;23.124;2022-11-21T04:04:26;118349.16;;;-140.64;100.00
7930;BME280;4010;42.698;23.124;2022-11-21T04:06:53;118349.16;;;-140.64;100.00
7930;BME280;4010;42.698;23.124;2022-11-21T04:09:21;118349.16;;;-140.64;100.00
7930;BME280;4010;42.698;23.124;2022-11-21T04:11:47;118349.16;;;-140.64;100.00
7930;BME280;4010;42.698;23.124;2022-11-21T04:14:14;118349.16;;;-140.64;100.00
7930;BME280;4010;42.698;23.124;2022-11-21T04:16:41;118349.16;;;-140.64;100.00
7930;BME280;4010;42.698;23.124;2022-11-21T04:19:07;118349.16;;;-140.64;100.00
7930;BME280;4010;42.698;23.124;2022-11-21T04:21:34;118349.16;;;-140.64;100.00
7930;BME280;4010;42.698;23.124;2022-11-21T04:24:01;118349.16;;;-140.64;100.00
7930;BME280;4010;42.698;23.124;2022-11-21T04:26:29;118349.16;;;-140.64;100.00
7930;BME280;4010;42.698;23.124;2022-11-21T04:28:56;118349.16;;;-140.64;100.00
7930;BME280;4010;42.698;23.124;2022-11-21T04:31:23;118349.16;;;-140.64;100.00
7930;BME280;4010;42.698;23.124;2022-11-21T04:33:49;118349.16;;;-140.64;100.00
7930;BME280;4010;42.698;23.124;2022-11-21T04:36:16;118349.16;;;-140.64;100.00
7930;BME280;4010;42.698;23.124;2022-11-21T04:38:43;118349.16;;;-140.64;100.00
7930;BME280;4010;42.698;23.124;2022-11-21T04:41:09;118349.16;;;-140.64;100.00
7930;BME280;4010;42.698;23.124;2022-11-21T04:43:38;118349.16;;;-140.64;100.00
7930;BME280;4010;42.698;23.124;2022-11-21T04:46:04;118349.16;;;-140.64;100.00
7930;BME280;4010;42.698;23.124;2022-11-21T04:48:31;118349.16;;;-140.64;100.00
7930;BME280;4010;42.698;23.124;2022-11-21T04:50:58;118349.16;;;-140.64;100.00
7930;BME280;4010;42.698;23.124;2022-11-21T04:53:24;118349.16;;;-140.64;100.00
7930;BME280;4010;42.698;23.124;2022-11-21T04:55:51;118349.16;;;-140.64;100.00
7930;BME280;4010;42.698;23.124;2022-11-21T04:58:18;118349.16;;;-140.64;100.00
7930;BME280;4010;42.698;23.124;2022-11-21T05:00:46;118349.16;;;-140.64;100.00
7930;BME280;4010;42.698;23.124;2022-11-21T05:03:12;118349.16;;;-140.64;100.00
7930;BME280;4010;42.698;23.124;2022-11-21T05:05:39;118349.16;;;-140.64;100.00
7930;BME280;4010;42.698;23.124;2022-11-21T05:08:06;118349.16;;;-140.64;100.00
7930;BME280;4010;42.698;23.124;2022-11-21T05:10:33;118349.16;;;-140.64;100.00
7930;BME280;4010;42.698;23.124;2022-11-21T05:13:19;118349.16;;;-140.64;100.00
7930;BME280;4010;42.698;23.124;2022-11-21T05:15:46;118349.16;;;-140.64;100.00
7930;BME280;4010;42.698;23.124;2022-11-21T05:18:16;118349.16;;;-140.64;100.00
7930;BME280;4010;42.698;23.124;2022-11-21T05:20:43;118349.16;;;-140.64;100.00
7930;BME280;4010;42.698;23.124;2022-11-21T05:23:10;118349.16;;;-140.64;100.00
7930;BME280;4010;42.698;23.124;2022-11-21T05:25:36;118349.16;;;-140.64;100.00
7930;BME280;4010;42.698;23.124;2022-11-21T05:28:03;118349.16;;;-140.64;100.00
7930;BME280;4010;42.698;23.124;2022-11-21T05:30:30;118349.16;;;-140.64;100.00
7930;BME280;4010;42.698;23.124;2022-11-21T05:32:58;118349.16;;;-140.64;100.00
7930;BME280;4010;42.698;23.124;2022-11-21T05:35:25;118349.16;;;-140.64;100.00
7930;BME280;4010;42.698;23.124;2022-11-21T05:37:55;118349.16;;;-140.64;100.00
7930;BME280;4010;42.698;23.124;2022-11-21T05:40:22;118349.16;;;-140.64;100.00
7930;BME280;4010;42.698;23.124;2022-11-21T05:42:49;118349.16;;;-140.64;100.00
7930;BME280;4010;42.698;23.124;2022-11-21T05:45:33;118349.16;;;-140.64;100.00
7930;BME280;4010;42.698;23.124;2022-11-21T05:48:01;118349.16;;;-140.64;100.00
7930;BME280;4010;42.698;23.124;2022-11-21T05:50:32;118349.16;;;-140.64;100.00
7930;BME280;4010;42.698;23.124;2022-11-21T05:53:00;118349.16;;;-140.64;100.00
7930;BME280;4010;42.698;23.124;2022-11-21T05:55:27;118349.16;;;-140.64;100.00
7930;BME280;4010;42.698;23.124;2022-11-21T05:57:57;118349.16;;;-140.64;100.00
7930;BME280;4010;42.698;23.124;2022-11-21T06:00:24;118349.16;;;-140.64;100.00
7930;BME280;4010;42.698;23.124;2022-11-21T06:02:50;118349.16;;;-140.64;100.00
7930;BME280;4010;42.698;23.124;2022-11-21T06:05:36;118349.16;;;-140.64;100.00
7930;BME280;4010;42.698;23.124;2022-11-21T06:08:03;118349.16;;;-140.64;100.00
7930;BME280;4010;42.698;23.124;2022-11-21T06:10:30;118349.16;;;-140.64;100.00
7930;BME280;4010;42.698;23.124;2022-11-21T06:12:58;118349.16;;;-140.64;100.00
7930;BME280;4010;42.698;23.124;2022-11-21T06:15:25;118349.16;;;-140.64;100.00
7930;BME280;4010;42.698;23.124;2022-11-21T06:17:52;118349.16;;;-140.64;100.00
7930;BME280;4010;42.698;23.124;2022-11-21T06:20:19;118349.16;;;-140.64;100.00
7930;BME280;4010;42.698;23.124;2022-11-21T06:22:47;118349.16;;;-140.64;100.00
7930;BME280;4010;42.698;23.124;2022-11-21T06:25:13;118349.16;;;-140.64;100.00
7930;BME280;4010;42.698;23.124;2022-11-21T06:27:40;118349.16;;;-140.64;100.00
7930;BME280;4010;42.698;23.124;2022-11-21T06:30:07;118349.16;;;-140.64;100.00
7930;BME280;4010;42.698;23.124;2022-11-21T06:32:35;118349.16;;;-140.64;100.00
7930;BME280;4010;42.698;23.124;2022-11-21T06:35:03;118349.16;;;-140.64;100.00
7930;BME280;4010;42.698;23.124;2022-11-21T06:37:30;118349.16;;;-140.64;100.00
7930;BME280;4010;42.698;23.124;2022-11-21T06:39:59;118349.16;;;-140.64;100.00
7930;BME280;4010;42.698;23.124;2022-11-21T06:42:25;118349.16;;;-140.64;100.00
7930;BME280;4010;42.698;23.124;2022-11-21T06:44:52;118349.16;;;-140.64;100.00
7930;BME280;4010;42.698;23.124;2022-11-21T06:47:19;118349.16;;;-140.64;100.00
7930;BME280;4010;42.698;23.124;2022-11-21T06:49:45;118349.16;;;-140.64;100.00
7930;BME280;4010;42.698;23.124;2022-11-21T06:52:12;118349.16;;;-140.64;100.00
7930;BME280;4010;42.698;23.124;2022-11-21T06:54:39;118349.16;;;-140.64;100.00
7930;BME280;4010;42.698;23.124;2022-11-21T06:57:07;118349.16;;;-140.64;100.00
7930;BME280;4010;42.698;23.124;2022-11-21T06:59:33;118349.16;;;-140.64;100.00
7930;BME280;4010;42.698;23.124;2022-11-21T07:02:00;118349.16;;;-140.64;100.00
7930;BME280;4010;42.698;23.124;2022-11-21T07:04:27;118349.16;;;-140.64;100.00
7930;BME280;4010;42.698;23.124;2022-11-21T07:06:53;118349.16;;;-140.64;100.00
7930;BME280;4010;42.698;23.124;2022-11-21T07:09:20;118349.16;;;-140.64;100.00
7930;BME280;4010;42.698;23.124;2022-11-21T07:11:47;118349.16;;;-140.64;100.00
7930;BME280;4010;42.698;23.124;2022-11-21T07:14:16;118349.16;;;-140.64;100.00
7930;BME280;4010;42.698;23.124;2022-11-21T07:16:42;118349.16;;;-140.64;100.00
7930;BME280;4010;42.698;23.124;2022-11-21T07:19:08;118349.16;;;-140.64;100.00
7930;BME280;4010;42.698;23.124;2022-11-21T07:21:36;118349.16;;;-140.64;100.00
7930;BME280;4010;42.698;23.124;2022-11-21T07:24:03;118349.16;;;-140.64;100.00
7930;BME280;4010;42.698;23.124;2022-11-21T07:26:30;118349.16;;;-140.64;100.00
7930;BME280;4010;42.698;23.124;2022-11-21T07:28:57;118349.16;;;-140.64;100.00
7930;BME280;4010;42.698;23.124;2022-11-21T07:31:25;118349.16;;;-140.64;100.00
7930;BME280;4010;42.698;23.124;2022-11-21T07:33:52;118349.16;;;-140.64;100.00
7930;BME280;4010;42.698;23.124;2022-11-21T07:36:18;118349.16;;;-140.64;100.00
7930;BME280;4010;42.698;23.124;2022-11-21T07:38:46;116629.09;;;-140.64;100.00
7930;BME280;4010;42.698;23.124;2022-11-21T07:41:12;116215.66;;;-140.64;100.00
7930;BME280;4010;42.698;23.124;2022-11-21T07:43:39;118349.16;;;-140.64;100.00
7930;BME280;4010;42.698;23.124;2022-11-21T07:46:06;118349.16;;;-140.64;100.00
7930;BME280;4010;42.698;23.124;2022-11-21T07:48:34;118349.16;;;-140.64;100.00
7930;BME280;4010;42.698;23.124;2022-11-21T07:51:03;118349.16;;;-140.64;100.00
7930;BME280;4010;42.698;23.124;2022-11-21T07:53:30;118349.16;;;-140.64;100.00
7930;BME280;4010;42.698;23.124;2022-11-21T07:55:57;118349.16;;;-140.64;100.00
7930;BME280;4010;42.698;23.124;2022-11-21T07:58:24;118349.16;;;-140.64;100.00
7930;BME280;4010;42.698;23.124;2022-11-21T08:00:51;118349.16;;;-140.64;100.00
7930;BME280;4010;42.698;23.124;2022-11-21T08:03:18;118349.16;;;-140.64;100.00
7930;BME280;4010;42.698;23.124;2022-11-21T08:05:46;118349.16;;;-140.64;100.00
7930;BME280;4010;42.698;23.124;2022-11-21T08:08:14;118349.16;;;-140.64;100.00
7930;BME280;4010;42.698;23.124;2022-11-21T08:10:42;118349.16;;;-140.64;100.00
7930;BME280;4010;42.698;23.124;2022-11-21T08:13:09;118349.16;;;-140.64;100.00
7930;BME280;4010;42.698;23.124;2022-11-21T08:15:36;118349.16;;;-140.64;100.00
7930;BME280;4010;42.698;23.124;2022-11-21T08:18:07;118349.16;;;-140.64;100.00
7930;BME280;4010;42.698;23.124;2022-11-21T08:20:34;118349.16;;;-140.64;100.00
7930;BME280;4010;42.698;23.124;2022-11-21T08:23:02;118349.16;;;-140.64;100.00
7930;BME280;4010;42.698;23.124;2022-11-21T08:25:29;118349.16;;;-140.64;100.00
7930;BME280;4010;42.698;23.124;2022-11-21T08:27:56;118349.16;;;-140.64;100.00
7930;BME280;4010;42.698;23.124;2022-11-21T08:30:23;118349.16;;;-140.64;100.00
7930;BME280;4010;42.698;23.124;2022-11-21T08:32:50;118349.16;;;-140.64;100.00
7930;BME280;4010;42.698;23.124;2022-11-21T08:35:16;118349.16;;;-140.64;100.00
7930;BME280;4010;42.698;23.124;2022-11-21T08:37:43;118349.16;;;-140.64;100.00
7930;BME280;4010;42.698;23.124;2022-11-21T08:40:11;118349.16;;;-140.64;100.00
7930;BME280;4010;42.698;23.124;2022-11-21T08:42:38;118349.16;;;-140.64;100.00
7930;BME280;4010;42.698;23.124;2022-11-21T08:45:05;118349.16;;;-140.64;100.00
7930;BME280;4010;42.698;23.124;2022-11-21T08:47:32;118349.16;;;-140.64;100.00
7930;BME280;4010;42.698;23.124;2022-11-21T08:49:59;118349.16;;;-140.64;100.00
7930;BME280;4010;42.698;23.124;2022-11-21T08:52:26;118349.16;;;-140.64;100.00
7930;BME280;4010;42.698;23.124;2022-11-21T08:54:52;118349.16;;;-140.64;100.00
7930;BME280;4010;42.698;23.124;2022-11-21T08:57:20;118349.16;;;-140.64;100.00
7930;BME280;4010;42.698;23.124;2022-11-21T08:59:47;118349.16;;;-140.64;100.00
7930;BME280;4010;42.698;23.124;2022-11-21T09:02:14;118349.16;;;-140.64;100.00
7930;BME280;4010;42.698;23.124;2022-11-21T09:04:40;118349.16;;;-140.64;100.00
7930;BME280;4010;42.698;23.124;2022-11-21T09:07:07;118349.16;;;-140.64;100.00
7930;BME280;4010;42.698;23.124;2022-11-21T09:09:34;118349.16;;;-140.64;100.00
7930;BME280;4010;42.698;23.124;2022-11-21T09:12:00;118349.16;;;-140.64;100.00
7930;BME280;4010;42.698;23.124;2022-11-21T09:14:30;118349.16;;;-140.64;100.00
7930;BME280;4010;42.698;23.124;2022-11-21T09:17:15;118349.16;;;-140.64;100.00
7930;BME280;4010;42.698;23.124;2022-11-21T09:19:59;118349.16;;;-140.64;100.00
7930;BME280;4010;42.698;23.124;2022-11-21T09:22:26;118349.16;;;-140.64;100.00
7930;BME280;4010;42.698;23.124;2022-11-21T09:24:53;118349.16;;;-140.64;100.00
7930;BME280;4010;42.698;23.124;2022-11-21T09:27:19;118349.16;;;-140.64;100.00
7930;BME280;4010;42.698;23.124;2022-11-21T09:29:47;118349.16;;;-140.64;100.00
7930;BME280;4010;42.698;23.124;2022-11-21T09:32:14;118349.16;;;-140.64;100.00
7930;BME280;4010;42.698;23.124;2022-11-21T09:34:41;118349.16;;;-140.64;100.00
7930;BME280;4010;42.698;23.124;2022-11-21T09:37:07;118349.16;;;-140.64;100.00
7930;BME280;4010;42.698;23.124;2022-11-21T09:39:34;118349.16;;;-140.64;100.00
7930;BME280;4010;42.698;23.124;2022-11-21T09:42:12;118349.16;;;-140.64;100.00
7930;BME280;4010;42.698;23.124;2022-11-21T09:45:05;118349.16;;;-140.64;100.00
7930;BME280;4010;42.698;23.124;2022-11-21T09:47:34;118349.16;;;-140.64;100.00
7930;BME280;4010;42.698;23.124;2022-11-21T09:50:04;118349.16;;;-140.64;100.00
7930;BME280;4010;42.698;23.124;2022-11-21T09:52:36;118349.16;;;-140.64;100.00
7930;BME280;4010;42.698;23.124;2022-11-21T09:55:06;118349.16;;;-140.64;100.00
7930;BME280;4010;42.698;23.124;2022-11-21T09:57:34;118349.16;;;-140.64;100.00
7930;BME280;4010;42.698;23.124;2022-11-21T10:00:13;118349.16;;;-140.64;100.00
7930;BME280;4010;42.698;23.124;2022-11-21T10:02:41;118349.16;;;-140.64;100.00
7930;BME280;4010;42.698;23.124;2022-11-21T10:05:11;118349.16;;;-140.64;100.00
7930;BME280;4010;42.698;23.124;2022-11-21T10:07:39;118349.16;;;-140.64;100.00
7930;BME280;4010;42.698;23.124;2022-11-21T10:10:21;118349.16;;;-140.64;100.00
7930;BME280;4010;42.698;23.124;2022-11-21T10:13:03;118349.16;;;-140.64;100.00
7930;BME280;4010;42.698;23.124;2022-11-21T10:15:45;118349.16;;;-140.64;100.00
7930;BME280;4010;42.698;23.124;2022-11-21T10:18:46;118349.16;;;-140.64;100.00
7930;BME280;4010;42.698;23.124;2022-11-21T10:21:29;118349.16;;;-140.64;100.00
7930;BME280;4010;42.698;23.124;2022-11-21T10:24:15;118349.16;;;-140.64;100.00
7930;BME280;4010;42.698;23.124;2022-11-21T10:26:50;118349.16;;;-140.64;100.00
7930;BME280;4010;42.698;23.124;2022-11-21T10:29:21;118349.16;;;-140.64;100.00
7930;BME280;4010;42.698;23.124;2022-11-21T10:31:55;118349.16;;;-140.64;100.00
7930;BME280;4010;42.698;23.124;2022-11-21T10:34:25;118349.16;;;-140.64;100.00
7930;BME280;4010;42.698;23.124;2022-11-21T10:36:57;118349.16;;;-140.64;100.00
7930;BME280;4010;42.698;23.124;2022-11-21T10:39:32;118349.16;;;-140.64;100.00
7930;BME280;4010;42.698;23.124;2022-11-21T10:42:04;118349.16;;;-140.64;100.00
7930;BME280;4010;42.698;23.124;2022-11-21T10:44:37;118349.16;;;-140.64;100.00
7930;BME280;4010;42.698;23.124;2022-11-21T10:47:23;118349.16;;;-140.64;100.00
7930;BME280;4010;42.698;23.124;2022-11-21T10:50:03;118349.16;;;-140.64;100.00
7930;BME280;4010;42.698;23.124;2022-11-21T10:52:41;118349.16;;;-140.64;100.00
7930;BME280;4010;42.698;23.124;2022-11-21T10:55:11;118349.16;;;-140.64;100.00
7930;BME280;4010;42.698;23.124;2022-11-21T10:57:43;118349.16;;;-140.64;100.00
7930;BME280;4010;42.698;23.124;2022-11-21T11:00:19;118349.16;;;-140.64;100.00
7930;BME280;4010;42.698;23.124;2022-11-21T11:03:06;118349.16;;;-140.64;100.00
7930;BME280;4010;42.698;23.124;2022-11-21T11:05:53;118349.16;;;-140.64;100.00
7930;BME280;4010;42.698;23.124;2022-11-21T11:08:20;118349.16;;;-140.64;100.00
7930;BME280;4010;42.698;23.124;2022-11-21T11:11:00;118349.16;;;-140.64;100.00
7930;BME280;4010;42.698;23.124;2022-11-21T11:13:27;118349.16;;;-140.64;100.00
7930;BME280;4010;42.698;23.124;2022-11-21T11:16:09;118349.16;;;-140.64;100.00
7930;BME280;4010;42.698;23.124;2022-11-21T11:18:46;118349.16;;;-140.64;100.00
7930;BME280;4010;42.698;23.124;2022-11-21T11:21:16;118349.16;;;-140.64;100.00
7930;BME280;4010;42.698;23.124;2022-11-21T11:23:44;118349.16;;;-140.64;100.00
7930;BME280;4010;42.698;23.124;2022-11-21T11:26:25;118349.16;;;-140.64;100.00
7930;BME280;4010;42.698;23.124;2022-11-21T11:29:06;118349.16;;;-140.64;100.00
7930;BME280;4010;42.698;23.124;2022-11-21T11:31:39;118349.16;;;-140.64;100.00
7930;BME280;4010;42.698;23.124;2022-11-21T11:34:11;118349.16;;;-140.64;100.00
7930;BME280;4010;42.698;23.124;2022-11-21T11:36:45;118349.16;;;-140.64;100.00
7930;BME280;4010;42.698;23.124;2022-11-21T11:39:26;118349.16;;;-140.64;100.00
7930;BME280;4010;42.698;23.124;2022-11-21T11:42:13;118349.16;;;-140.64;100.00
7930;BME280;4010;42.698;23.124;2022-11-21T11:45:14;118349.16;;;-140.64;100.00
7930;BME280;4010;42.698;23.124;2022-11-21T11:47:59;118349.16;;;-140.64;100.00
7930;BME280;4010;42.698;23.124;2022-11-21T11:50:32;118349.16;;;-140.64;100.00
7930;BME280;4010;42.698;23.124;2022-11-21T11:53:04;118349.16;;;-140.64;100.00
7930;BME280;4010;42.698;23.124;2022-11-21T11:55:38;118349.16;;;-140.64;100.00
7930;BME280;4010;42.698;23.124;2022-11-21T11:58:14;118349.16;;;-140.64;100.00
7930;BME280;4010;42.698;23.124;2022-11-21T12:00:46;118349.16;;;-140.64;100.00
7930;BME280;4010;42.698;23.124;2022-11-21T12:03:18;118349.16;;;-140.64;100.00
7930;BME280;4010;42.698;23.124;2022-11-21T12:05:55;118349.16;;;-140.64;100.00
7930;BME280;4010;42.698;23.124;2022-11-21T12:08:29;118349.16;;;-140.64;100.00
7930;BME280;4010;42.698;23.124;2022-11-21T12:11:04;118349.16;;;-140.64;100.00
7930;BME280;4010;42.698;23.124;2022-11-21T12:13:54;118349.16;;;-140.64;100.00
7930;BME280;4010;42.698;23.124;2022-11-21T12:16:24;118349.16;;;-140.64;100.00
7930;BME280;4010;42.698;23.124;2022-11-21T12:18:55;118349.16;;;-140.64;100.00
7930;BME280;4010;42.698;23.124;2022-11-21T12:21:27;118349.16;;;-140.64;100.00
7930;BME280;4010;42.698;23.124;2022-11-21T12:23:55;118349.16;;;-140.64;100.00
7930;BME280;4010;42.698;23.124;2022-11-21T12:26:44;118349.16;;;-140.64;100.00
7930;BME280;4010;42.698;23.124;2022-11-21T12:29:23;118349.16;;;-140.64;100.00
7930;BME280;4010;42.698;23.124;2022-11-21T12:32:04;118349.16;;;-140.64;100.00
7930;BME280;4010;42.698;23.124;2022-11-21T12:34:52;118349.16;;;-140.64;100.00
7930;BME280;4010;42.698;23.124;2022-11-21T12:37:33;118349.16;;;-140.64;100.00
7930;BME280;4010;42.698;23.124;2022-11-21T12:40:09;118349.16;;;-140.64;100.00
7930;BME280;4010;42.698;23.124;2022-11-21T12:42:45;118349.16;;;-140.64;100.00
7930;BME280;4010;42.698;23.124;2022-11-21T12:45:26;118349.16;;;-140.64;100.00
7930;BME280;4010;42.698;23.124;2022-11-21T12:48:14;118349.16;;;-140.64;100.00